Etusivu
METAR-TAF:

METAR-TAF

Lentoasemat :

San Diego International Airport

San Diego, Kalifornia, Yhdysvallat

Leveyspiiri: 32-44-01N, Pituuspiiri: 117-10-59W, korkeus merenpinnasta: 4 m

Tämänhetkinen sää

Tämä raportti tehtiin 27 minuuttia sitten, kello 09.51 UTC
tyyntä
Lämpötila 8°C
Kosteus 53%
Ilmanpaine 1022 hPa
Näkyvyys: 16.1 km
selkeää

METAR: KSAN 280951Z 00000KT 10SM CLR 08/M01 A3017 RMK AO2 SLP216 T00831006

Aika: 02:18 (10:18 UTC)

Sääennuste

Tämä raportti tehtiin 1 tunti ja 22 minuuttia sitten, kello 08.56 UTC
Ennuste voimassa 28. päivästä klo 09 UTC - 29. päivään klo 12 UTC
Tuuli 3 kn eri suunnista
Näkyvyys: 10 km
selkeää
From 28. päivästä klo 2000 UTC
Tuuli 8 kn luoteesta
Näkyvyys: 10 km
Muutamia pilviä 25000 ft:n korkeudessa
From 29. päivästä klo 0200 UTC
Tuuli 4 kn eri suunnista
Näkyvyys: 10 km
selkeää

TAF: KSAN 280856Z 2809/2912 VRB03KT P6SM SKC FM282000 31008KT P6SM FEW250 FM290200 VRB04KT P6SM SKC

Säähavainnot ja -ennusteet yli 4000 lentoasemalta (METAR- ja TAF-raportit).

Käytössä olevat sääasemat on merkitty karttaan keltaisilla ja punaisilla pisteillä.

Aseta hiiri pisteen päälle nähdäksesi sääaseman nimen.

Klikkaa sitten nähdäksesi säähavainnot ja -ennusteet.

Kartan vaihtaminen: klikkaa mustalla rastilla varustettuja vihreitä pisteitä, niin voit zoomata sisään; viivalla varustettua vihreää pistettä, niin voit zoomata ulos tai vihreitä nuolia, niin pääset viereisille kartoille.


METAR-TAF: